CheckWX is a tool to help pilots better visualize weather data.  It is not intended as a substitute for an official pre-flight weather briefing.

03:10:35 UTC

KSPS METAR
Sheppard AFB / Wichita Falls Municipal Airport
Wichita Falls, Texas, USA
Current

19 mins ago

KSPS 230252Z AUTO 13006KT 10SM FEW110 25/24 A2996 RMK AO2 SLP132 T02500239 53015
Observed
Sep-23 @ 02:52 UTC
Wind
  • 130° at 6 KTS
Visibility
10 SM
Flight Rules
VFR
Cloud Levels
  • Few at 11,000' AGL
Temperature
25°C / 77°F
Dewpoint
24°C / 75°F
Humidity
94%
Altimeter
29.96" Hg
Pressure
1014.52 hPa
Previous

1 hour ago

KSPS 230152Z AUTO 13007KT 10SM SCT110 26/24 A2995 RMK AO2 SLP129 T02610239
Observed
Sep-23 @ 01:52 UTC
Wind
  • 130° at 7 KTS
Visibility
10 SM
Flight Rules
VFR
Cloud Levels
  • Scattered at 11,000' AGL
Temperature
26°C / 79°F
Dewpoint
24°C / 75°F
Humidity
89%
Altimeter
29.95" Hg
Pressure
1014.22 hPa
Previous

2 hours ago

KSPS 230052Z AUTO 15008KT 10SM CLR 26/23 A2993 RMK AO2 SLP121 T02560233
Observed
Sep-23 @ 00:52 UTC
Wind
  • 150° at 8 KTS
Visibility
10 SM
Flight Rules
VFR
Cloud Levels
  • Clear skies
Temperature
26°C / 79°F
Dewpoint
23°C / 73°F
Humidity
84%
Altimeter
29.93" Hg
Pressure
1013.52 hPa